Time;durP1;ratioP1;P1;durP2;ratioP2;P2;SDS_P1;SDS_P2;PMS_P1;PMS_P2;Temp;Humidity;BMP_temperature;BMP_pressure;BME280_temperature;BME280_humidity;BME280_pressure;Samples;Min_cycle;Max_cycle;Signal;HPM_P1;HPM_P2
2023/04/25 00:02:10;;;;;;;13.55;3.08;;;7.00;99.90;;;;;;5071490;28;20135;-75
2023/04/25 00:04:37;;;;;;;13.02;2.85;;;7.00;99.90;;;;;;5070184;28;20139;-74
2023/04/25 00:07:03;;;;;;;12.98;2.70;;;6.90;99.90;;;;;;5071539;28;20094;-75
2023/04/25 00:09:29;;;;;;;15.30;3.72;;;6.90;99.90;;;;;;5071166;28;20497;-74
2023/04/25 00:11:55;;;;;;;19.40;3.80;;;7.00;99.90;;;;;;5071666;28;20056;-74
2023/04/25 00:14:21;;;;;;;6.93;2.67;;;6.90;99.90;;;;;;5072219;28;20045;-74
2023/04/25 00:16:48;;;;;;;12.55;3.08;;;6.90;99.90;;;;;;5060753;28;20041;-77
2023/04/25 00:19:13;;;;;;;16.77;3.33;;;6.90;99.90;;;;;;5065500;28;20128;-75
2023/04/25 00:21:42;;;;;;;12.93;3.30;;;6.90;99.90;;;;;;5065108;28;20128;-75
2023/04/25 00:24:08;;;;;;;12.90;3.45;;;6.90;99.90;;;;;;5051193;28;20570;-74
2023/04/25 00:26:35;;;;;;;16.83;3.83;;;6.90;99.90;;;;;;5071002;28;20049;-75
2023/04/25 00:29:01;;;;;;;14.57;3.13;;;6.90;99.90;;;;;;5079749;28;20047;-74
2023/04/25 00:31:28;;;;;;;38.65;3.90;;;6.80;99.90;;;;;;5067240;28;20041;-75
2023/04/25 00:33:54;;;;;;;17.35;3.10;;;6.80;99.90;;;;;;5032990;28;20064;-74
2023/04/25 00:36:20;;;;;;;19.23;3.55;;;6.80;99.90;;;;;;5052067;28;20045;-74
2023/04/25 00:38:46;;;;;;;22.05;3.50;;;6.70;99.90;;;;;;5068624;28;20049;-74
2023/04/25 00:41:12;;;;;;;15.40;2.90;;;6.60;99.90;;;;;;5064670;28;20494;-74
2023/04/25 00:43:38;;;;;;;15.00;4.13;;;6.50;99.90;;;;;;5050323;28;20053;-74
2023/04/25 00:46:04;;;;;;;18.63;3.70;;;6.50;99.90;;;;;;5050086;28;20056;-73
2023/04/25 00:48:29;;;;;;;11.77;2.67;;;6.40;99.90;;;;;;5064099;28;20075;-73
2023/04/25 00:50:58;;;;;;;11.23;3.00;;;6.40;99.90;;;;;;5071109;28;20060;-74
2023/04/25 00:53:27;;;;;;;15.57;4.25;;;6.40;99.90;;;;;;5062752;28;20036;-74
2023/04/25 00:55:55;;;;;;;16.20;3.38;;;6.30;99.90;;;;;;5049807;28;20049;-74
2023/04/25 00:58:21;;;;;;;16.60;3.05;;;6.30;99.90;;;;;;5051214;28;20049;-74
2023/04/25 01:00:49;;;;;;;16.30;3.10;;;6.30;99.90;;;;;;5057539;28;20147;-75
2023/04/25 01:03:17;;;;;;;15.23;2.90;;;6.30;99.90;;;;;;5050400;28;20056;-74
2023/04/25 01:05:43;;;;;;;14.55;3.95;;;6.20;99.90;;;;;;5049619;28;20121;-74
2023/04/25 01:08:09;;;;;;;16.98;3.15;;;6.20;99.90;;;;;;5064181;28;20045;-75
2023/04/25 01:10:36;;;;;;;15.85;3.45;;;6.20;99.90;;;;;;5068686;28;20056;-75
2023/04/25 01:13:02;;;;;;;16.00;3.53;;;6.10;99.90;;;;;;5069108;28;20056;-75
2023/04/25 01:15:28;;;;;;;15.77;4.22;;;6.30;99.90;;;;;;5069888;28;20071;-74
2023/04/25 01:17:55;;;;;;;16.45;2.92;;;6.20;99.90;;;;;;5068745;28;20474;-76
2023/04/25 01:20:24;;;;;;;15.75;3.13;;;6.20;99.90;;;;;;5051056;28;20070;-74
2023/04/25 01:22:54;;;;;;;13.65;2.88;;;6.30;99.90;;;;;;5056765;28;20044;-75
2023/04/25 01:25:21;;;;;;;12.30;3.10;;;6.30;99.90;;;;;;5069979;28;20049;-74
2023/04/25 01:27:47;;;;;;;15.63;3.45;;;6.30;99.90;;;;;;5058808;28;20130;-75
2023/04/25 01:30:13;;;;;;;14.38;3.00;;;6.40;99.90;;;;;;5067892;28;20080;-74
2023/04/25 01:32:41;;;;;;;12.00;2.78;;;6.40;99.90;;;;;;5085729;28;20064;-75
2023/04/25 01:35:09;;;;;;;12.15;2.65;;;6.40;99.90;;;;;;5065731;28;20048;-74
2023/04/25 01:37:42;;;;;;;15.52;3.20;;;6.40;99.90;;;;;;5049461;28;20409;-74
2023/04/25 01:40:10;;;;;;;15.13;4.05;;;6.40;99.90;;;;;;5048008;28;20457;-74
2023/04/25 01:42:38;;;;;;;14.90;2.80;;;6.30;99.90;;;;;;5049546;28;20045;-75
2023/04/25 01:45:05;;;;;;;14.40;3.05;;;6.30;99.90;;;;;;5049190;28;20049;-74
2023/04/25 01:47:31;;;;;;;9.57;3.13;;;6.30;99.90;;;;;;5049800;28;20045;-75
2023/04/25 01:49:56;;;;;;;10.80;2.88;;;6.30;99.90;;;;;;5048196;28;20136;-77
2023/04/25 01:52:22;;;;;;;13.95;2.53;;;6.20;99.90;;;;;;5059237;28;20074;-74
2023/04/25 01:54:49;;;;;;;16.08;3.15;;;6.10;99.90;;;;;;5068364;28;20190;-74
2023/04/25 01:57:15;;;;;;;20.15;3.47;;;6.10;99.90;;;;;;5055908;28;20064;-74
2023/04/25 01:59:43;;;;;;;9.43;2.80;;;6.00;99.90;;;;;;5065077;28;20045;-75
2023/04/25 02:02:09;;;;;;;9.93;4.13;;;6.00;99.90;;;;;;5066333;28;20052;-74
2023/04/25 02:04:34;;;;;;;11.85;2.50;;;5.90;99.90;;;;;;5049580;28;20167;-75
2023/04/25 02:07:00;;;;;;;15.60;3.00;;;5.80;99.90;;;;;;5065751;28;20052;-77
2023/04/25 02:09:26;;;;;;;12.73;2.67;;;5.80;99.90;;;;;;5048312;28;20572;-74
2023/04/25 02:11:53;;;;;;;10.30;2.17;;;5.70;99.90;;;;;;5048543;28;20056;-74
2023/04/25 02:14:18;;;;;;;11.23;3.38;;;5.60;99.90;;;;;;5048314;28;20048;-75
2023/04/25 02:16:44;;;;;;;7.85;2.40;;;5.60;99.90;;;;;;5048340;28;20061;-75
2023/04/25 02:19:10;;;;;;;20.17;3.17;;;5.60;99.90;;;;;;5067670;28;20048;-74
2023/04/25 02:21:36;;;;;;;10.18;3.42;;;5.70;99.90;;;;;;5067708;28;20059;-75
2023/04/25 02:24:03;;;;;;;10.98;3.22;;;5.70;99.90;;;;;;5069850;28;20127;-76
2023/04/25 02:26:29;;;;;;;6.57;2.80;;;5.70;99.90;;;;;;5056687;28;20063;-73
2023/04/25 02:28:56;;;;;;;15.10;3.95;;;5.70;99.90;;;;;;5074026;28;20132;-74
2023/04/25 02:31:22;;;;;;;13.38;2.90;;;5.70;99.90;;;;;;5072264;28;20037;-74
2023/04/25 02:33:48;;;;;;;8.15;2.60;;;6.00;99.90;;;;;;5055450;28;20059;-75
2023/04/25 02:36:14;;;;;;;13.38;2.72;;;5.80;99.90;;;;;;5055966;28;20048;-74
2023/04/25 02:38:40;;;;;;;19.05;3.67;;;5.80;99.90;;;;;;5061822;28;20450;-74
2023/04/25 02:41:06;;;;;;;14.18;3.88;;;5.90;99.90;;;;;;5052554;28;20055;-75
2023/04/25 02:43:32;;;;;;;16.60;4.25;;;5.80;99.90;;;;;;5052254;28;20048;-75
2023/04/25 02:45:57;;;;;;;14.95;3.83;;;5.90;99.90;;;;;;5069209;28;20098;-76
2023/04/25 02:48:23;;;;;;;16.30;3.72;;;5.90;99.90;;;;;;5051367;28;20037;-76
2023/04/25 02:50:49;;;;;;;15.60;3.28;;;5.90;99.90;;;;;;5052168;28;20092;-74
2023/04/25 02:53:15;;;;;;;11.52;2.38;;;5.90;99.90;;;;;;5052641;28;20498;-74
2023/04/25 02:55:40;;;;;;;15.23;2.97;;;5.90;99.90;;;;;;5081288;28;20044;-74
2023/04/25 02:58:06;;;;;;;16.00;3.65;;;5.90;99.90;;;;;;5073163;28;20052;-77
2023/04/25 03:00:32;;;;;;;12.40;2.70;;;5.90;99.90;;;;;;5068965;28;20083;-75
2023/04/25 03:02:57;;;;;;;10.40;2.83;;;6.00;99.90;;;;;;5052106;28;20098;-75
2023/04/25 03:05:23;;;;;;;12.45;3.70;;;6.00;99.90;;;;;;5052457;28;20052;-75
2023/04/25 03:07:49;;;;;;;10.63;2.22;;;6.00;99.90;;;;;;5074932;28;20481;-75
2023/04/25 03:10:15;;;;;;;7.95;2.35;;;6.00;99.90;;;;;;5070854;28;20044;-75
2023/04/25 03:12:40;;;;;;;17.83;4.18;;;6.00;99.90;;;;;;5072069;28;20131;-76
2023/04/25 03:15:06;;;;;;;11.88;2.95;;;6.00;99.90;;;;;;5070077;28;20051;-76
2023/04/25 03:17:32;;;;;;;;;;;6.00;99.90;;;;;;5071837;28;20506;-75
2023/04/25 03:19:58;;;;;;;13.32;3.08;;;5.90;99.90;;;;;;5065155;28;19927;-74
2023/04/25 03:22:23;;;;;;;12.13;2.88;;;6.10;99.90;;;;;;5061110;28;20049;-75
2023/04/25 03:24:50;;;;;;;19.40;3.22;;;5.90;99.90;;;;;;5071492;28;20058;-75
2023/04/25 03:27:16;;;;;;;18.80;2.35;;;5.90;99.90;;;;;;5071327;28;20101;-75
2023/04/25 03:29:42;;;;;;;14.70;2.20;;;5.90;99.90;;;;;;5055347;28;20045;-75
2023/04/25 03:32:07;;;;;;;14.23;3.00;;;5.90;99.90;;;;;;5051495;28;20049;-77
2023/04/25 03:34:35;;;;;;;10.77;2.30;;;5.90;99.90;;;;;;5050296;28;20080;-75
2023/04/25 03:37:01;;;;;;;10.25;2.75;;;5.80;99.90;;;;;;5051936;28;20049;-75
2023/04/25 03:39:27;;;;;;;13.10;2.70;;;5.80;99.90;;;;;;5052962;28;20118;-75
2023/04/25 03:41:52;;;;;;;16.98;2.78;;;5.80;99.90;;;;;;5056838;28;20132;-75
2023/04/25 03:44:18;;;;;;;14.88;2.20;;;5.80;99.90;;;;;;5068504;28;20079;-75
2023/04/25 03:46:44;;;;;;;10.38;2.40;;;5.80;99.90;;;;;;5071503;28;20040;-76
2023/04/25 03:49:09;;;;;;;9.82;1.92;;;5.80;99.90;;;;;;5070598;28;20461;-76
2023/04/25 03:51:35;;;;;;;12.00;2.17;;;5.80;99.90;;;;;;5061810;28;20106;-75
2023/04/25 03:54:01;;;;;;;8.07;1.65;;;5.80;99.90;;;;;;5070569;28;20512;-74
2023/04/25 03:56:26;;;;;;;6.80;2.55;;;5.80;99.90;;;;;;5054280;28;20056;-75
2023/04/25 03:58:52;;;;;;;10.50;2.10;;;5.80;99.90;;;;;;5071137;28;20070;-75
2023/04/25 04:01:18;;;;;;;6.70;1.83;;;5.70;99.90;;;;;;5070975;28;20048;-75
2023/04/25 04:03:43;;;;;;;12.18;2.60;;;5.80;99.90;;;;;;5064788;28;20045;-75
2023/04/25 04:06:10;;;;;;;20.55;2.45;;;5.70;99.90;;;;;;5061746;28;20098;-75
2023/04/25 04:08:36;;;;;;;9.57;3.00;;;5.80;99.90;;;;;;5057639;28;20109;-75
2023/04/25 04:11:02;;;;;;;14.52;3.13;;;5.70;99.90;;;;;;5051120;28;20489;-75
2023/04/25 04:13:29;;;;;;;11.18;2.47;;;5.70;99.90;;;;;;5068957;28;20045;-75
2023/04/25 04:15:55;;;;;;;13.57;1.83;;;5.70;99.90;;;;;;5072460;28;20056;-75
2023/04/25 04:18:21;;;;;;;;;;;5.70;99.90;;;;;;5070078;28;20056;-76
2023/04/25 04:20:47;;;;;;;10.38;2.85;;;5.90;99.90;;;;;;5071001;28;19920;-75
2023/04/25 04:23:13;;;;;;;7.50;1.58;;;5.90;99.90;;;;;;5069252;28;20478;-75
2023/04/25 04:25:40;;;;;;;7.35;1.40;;;5.70;99.90;;;;;;5049610;28;20139;-75
2023/04/25 04:28:06;;;;;;;9.75;2.47;;;5.70;99.90;;;;;;5051794;28;20061;-75
2023/04/25 04:30:36;;;;;;;11.60;1.60;;;5.70;99.90;;;;;;5070202;28;20049;-75
2023/04/25 04:33:02;;;;;;;3.13;1.67;;;5.70;99.90;;;;;;5070201;28;20052;-75
2023/04/25 04:35:27;;;;;;;;;;;5.70;99.90;;;;;;5060531;28;20135;-74
2023/04/25 04:37:54;;;;;;;7.88;1.85;;;5.80;99.90;;;;;;5050856;28;20527;-75
2023/04/25 04:40:20;;;;;;;5.70;1.42;;;5.70;99.90;;;;;;5049307;28;20061;-75
2023/04/25 04:42:46;;;;;;;6.57;1.60;;;5.60;99.90;;;;;;5051860;28;20393;-74
2023/04/25 04:45:12;;;;;;;9.23;2.08;;;5.60;99.90;;;;;;5070641;28;20389;-75
2023/04/25 04:47:39;;;;;;;5.95;1.50;;;5.60;99.90;;;;;;5069352;28;20354;-75
2023/04/25 04:50:09;;;;;;;8.60;2.10;;;5.60;99.90;;;;;;5069551;28;20067;-75
2023/04/25 04:52:38;;;;;;;7.38;1.48;;;5.60;99.90;;;;;;5070020;28;20059;-75
2023/04/25 04:55:05;;;;;;;6.70;1.55;;;5.60;99.90;;;;;;5084833;28;20048;-75
2023/04/25 04:57:32;;;;;;;9.23;1.58;;;5.60;99.90;;;;;;5068299;28;20048;-75
2023/04/25 04:59:59;;;;;;;7.95;1.60;;;5.80;99.90;;;;;;5070339;28;20048;-75
2023/04/25 05:02:25;;;;;;;2.67;0.90;;;5.60;99.90;;;;;;5082457;28;20051;-76
2023/04/25 05:04:51;;;;;;;;;;;5.60;99.90;;;;;;5071199;28;20040;-75
2023/04/25 05:07:17;;;;;;;7.53;1.33;;;5.50;99.90;;;;;;5072025;28;19924;-75
2023/04/25 05:09:43;;;;;;;;;;;5.60;99.90;;;;;;5075711;28;20048;-75
2023/04/25 05:12:09;;;;;;;5.38;1.52;;;5.50;99.90;;;;;;5088477;28;20422;-75
2023/04/25 05:14:35;;;;;;;6.25;1.63;;;5.50;99.90;;;;;;5075623;28;20044;-75
2023/04/25 05:17:00;;;;;;;6.82;1.45;;;5.60;99.90;;;;;;5080079;28;20040;-75
2023/04/25 05:19:26;;;;;;;9.02;1.23;;;5.60;99.90;;;;;;5076071;28;20058;-75
2023/04/25 05:21:52;;;;;;;7.28;1.40;;;5.60;99.90;;;;;;5066856;28;20067;-75
2023/04/25 05:24:18;;;;;;;12.13;1.83;;;5.60;99.90;;;;;;5068724;28;20051;-75
2023/04/25 05:26:44;;;;;;;6.85;1.40;;;5.60;99.90;;;;;;5068991;28;20448;-75
2023/04/25 05:29:09;;;;;;;7.40;1.50;;;5.70;99.90;;;;;;5052920;28;20508;-75
2023/04/25 05:31:36;;;;;;;8.05;1.55;;;5.70;99.90;;;;;;5069149;28;20044;-75
2023/04/25 05:34:02;;;;;;;8.77;2.35;;;5.70;99.90;;;;;;5068682;28;20048;-75
2023/04/25 05:36:28;;;;;;;;;;;5.70;99.90;;;;;;5068189;28;20040;-75
2023/04/25 05:38:53;;;;;;;7.22;1.92;;;5.70;99.90;;;;;;5052097;28;19979;-76
2023/04/25 05:41:20;;;;;;;7.20;1.42;;;5.70;99.90;;;;;;5069175;28;20064;-75
2023/04/25 05:43:47;;;;;;;;;;;5.70;99.90;;;;;;5070419;28;20056;-75
2023/04/25 05:46:13;;;;;;;6.43;1.48;;;5.80;99.90;;;;;;5069620;28;20371;-74
2023/04/25 05:48:39;;;;;;;;;;;5.70;99.90;;;;;;5057190;28;20056;-74
2023/04/25 05:51:05;;;;;;;7.70;1.80;;;5.70;99.90;;;;;;5068122;28;20305;-75
2023/04/25 05:53:31;;;;;;;6.80;1.73;;;5.70;99.90;;;;;;5064928;28;20049;-76
2023/04/25 05:55:57;;;;;;;7.47;1.80;;;5.70;99.90;;;;;;5061652;28;20094;-70
2023/04/25 05:58:22;;;;;;;6.38;2.08;;;5.70;99.90;;;;;;5068720;28;20048;-70
2023/04/25 06:00:48;;;;;;;9.82;1.67;;;5.70;99.90;;;;;;5070170;28;20485;-70
2023/04/25 06:03:14;;;;;;;5.15;1.80;;;5.90;99.90;;;;;;5069717;28;20612;-71
2023/04/25 06:05:43;;;;;;;6.80;1.90;;;6.00;99.90;;;;;;5069312;28;20049;-72
2023/04/25 06:08:09;;;;;;;5.20;1.70;;;6.00;99.90;;;;;;5070202;28;20132;-72
2023/04/25 06:10:36;;;;;;;10.93;1.63;;;6.00;99.90;;;;;;5068907;28;20044;-72
2023/04/25 06:13:02;;;;;;;11.20;1.70;;;6.00;99.90;;;;;;5069305;28;20059;-72
2023/04/25 06:15:28;;;;;;;6.75;1.70;;;6.30;99.90;;;;;;5069755;28;20421;-72
2023/04/25 06:17:55;;;;;;;9.65;1.77;;;6.10;99.90;;;;;;5062563;28;20048;-71
2023/04/25 06:20:23;;;;;;;10.45;3.08;;;6.10;99.90;;;;;;5054668;28;20052;-72
2023/04/25 06:22:51;;;;;;;8.50;1.48;;;6.20;99.90;;;;;;5048484;28;20409;-71
2023/04/25 06:25:17;;;;;;;10.63;1.52;;;6.30;99.90;;;;;;5052385;28;20049;-72
2023/04/25 06:27:43;;;;;;;9.65;1.40;;;6.30;99.90;;;;;;5069398;28;20045;-72
2023/04/25 06:30:09;;;;;;;12.82;2.78;;;6.30;99.90;;;;;;5070165;28;20075;-72
2023/04/25 06:32:35;;;;;;;5.90;1.50;;;6.30;99.90;;;;;;5069215;28;20044;-72
2023/04/25 06:35:01;;;;;;;8.70;2.35;;;6.40;99.90;;;;;;5069583;28;20132;-72
2023/04/25 06:37:27;;;;;;;9.02;2.00;;;6.40;99.90;;;;;;5067375;28;20096;-75
2023/04/25 06:39:52;;;;;;;8.73;1.90;;;6.40;99.90;;;;;;5080227;28;20056;-72
2023/04/25 06:42:18;;;;;;;8.07;1.55;;;6.50;99.90;;;;;;5057295;28;20040;-72
2023/04/25 06:44:46;;;;;;;6.90;1.50;;;6.40;99.90;;;;;;5085190;28;20131;-72
2023/04/25 06:47:12;;;;;;;6.10;1.70;;;6.90;99.90;;;;;;5071504;28;20045;-72
2023/04/25 06:49:38;;;;;;;10.38;1.52;;;6.50;99.90;;;;;;5048629;28;20052;-72
2023/04/25 06:52:04;;;;;;;9.18;1.67;;;6.60;99.90;;;;;;5058425;28;20040;-72
2023/04/25 06:54:29;;;;;;;12.00;1.95;;;6.60;99.90;;;;;;5068511;28;20052;-76
2023/04/25 06:57:00;;;;;;;8.23;1.90;;;6.60;99.90;;;;;;5069240;28;20550;-72
2023/04/25 06:59:26;;;;;;;14.30;2.50;;;6.60;99.90;;;;;;5069537;28;20063;-73
2023/04/25 07:01:52;;;;;;;6.65;1.35;;;6.70;99.90;;;;;;5068872;28;20398;-78
2023/04/25 07:04:17;;;;;;;10.95;1.90;;;6.80;99.90;;;;;;5083464;28;20058;-72
2023/04/25 07:06:43;;;;;;;2.97;1.38;;;6.90;99.90;;;;;;5064939;28;20470;-70
2023/04/25 07:09:09;;;;;;;8.43;2.45;;;6.90;99.90;;;;;;5068254;28;20055;-70
2023/04/25 07:11:35;;;;;;;;;;;7.10;99.90;;;;;;5072265;28;20060;-71
2023/04/25 07:14:02;;;;;;;7.13;1.50;;;7.00;99.90;;;;;;5061005;28;19925;-72
2023/04/25 07:16:27;;;;;;;10.57;1.67;;;7.00;99.90;;;;;;5069287;28;20051;-71
2023/04/25 07:18:54;;;;;;;10.65;1.63;;;7.10;99.90;;;;;;5083754;28;20044;-72
2023/04/25 07:21:19;;;;;;;12.38;2.53;;;7.10;99.90;;;;;;5091149;28;20516;-70
2023/04/25 07:23:45;;;;;;;9.43;2.08;;;7.20;99.90;;;;;;5075017;28;20053;-71
2023/04/25 07:26:11;;;;;;;9.27;2.03;;;7.20;99.90;;;;;;5081666;28;20052;-71
2023/04/25 07:28:36;;;;;;;10.27;2.00;;;7.30;99.90;;;;;;5078423;28;20048;-71
2023/04/25 07:31:02;;;;;;;6.28;1.30;;;7.30;99.90;;;;;;5090830;28;20109;-71
2023/04/25 07:33:28;;;;;;;7.55;1.23;;;7.30;99.90;;;;;;5079549;28;20040;-71
2023/04/25 07:35:55;;;;;;;3.22;1.15;;;7.30;99.90;;;;;;5090799;28;20048;-71
2023/04/25 07:38:21;;;;;;;6.53;1.30;;;7.30;99.90;;;;;;5090837;28;20055;-72
2023/04/25 07:40:50;;;;;;;;;;;7.30;99.90;;;;;;5074918;28;20044;-71
2023/04/25 07:43:16;;;;;;;7.95;2.85;;;7.30;99.90;;;;;;5071970;28;20031;-71
2023/04/25 07:45:46;;;;;;;5.18;1.15;;;7.60;99.90;;;;;;5074603;28;20432;-70
2023/04/25 07:48:16;;;;;;;9.18;1.95;;;7.50;99.90;;;;;;5075230;28;20393;-70
2023/04/25 07:50:41;;;;;;;5.88;1.98;;;7.50;99.90;;;;;;5083720;28;20506;-71
2023/04/25 07:53:07;;;;;;;6.65;1.52;;;7.50;99.90;;;;;;5085513;28;20055;-72
2023/04/25 07:55:33;;;;;;;5.45;1.30;;;7.50;99.90;;;;;;5089523;28;20591;-71
2023/04/25 07:57:58;;;;;;;3.65;1.33;;;7.60;99.90;;;;;;5091920;28;20510;-72
2023/04/25 08:00:24;;;;;;;5.20;1.40;;;7.60;99.90;;;;;;5092468;28;20072;-71
2023/04/25 08:02:50;;;;;;;7.97;1.85;;;7.60;99.90;;;;;;5090608;28;20040;-76
2023/04/25 08:05:16;;;;;;;10.05;2.28;;;7.60;99.90;;;;;;5069601;28;20052;-71
2023/04/25 08:07:43;;;;;;;6.38;1.60;;;7.60;99.90;;;;;;5095892;28;20128;-75
2023/04/25 08:10:09;;;;;;;5.38;1.45;;;7.80;99.90;;;;;;5065028;28;20075;-75
2023/04/25 08:12:35;;;;;;;;;;;7.90;99.90;;;;;;5091583;28;20055;-75
2023/04/25 08:15:01;;;;;;;4.45;1.25;;;7.90;99.90;;;;;;5078246;28;20282;-77
2023/04/25 08:17:27;;;;;;;7.68;1.77;;;8.00;99.90;;;;;;5090597;28;20128;-79
2023/04/25 08:19:52;;;;;;;5.13;1.50;;;8.10;99.90;;;;;;5090776;28;20048;-74
2023/04/25 08:22:18;;;;;;;9.32;1.67;;;8.10;99.90;;;;;;5074149;28;20098;-78
2023/04/25 08:24:44;;;;;;;4.55;1.10;;;8.10;99.90;;;;;;5090437;28;20386;-80
2023/04/25 08:27:10;;;;;;;4.20;1.20;;;8.20;99.90;;;;;;5091851;28;20040;-78
2023/04/25 08:29:36;;;;;;;3.10;1.05;;;8.20;99.90;;;;;;5090462;28;20081;-72
2023/04/25 08:32:02;;;;;;;4.72;1.40;;;8.30;99.90;;;;;;5070256;28;20059;-72
2023/04/25 08:34:28;;;;;;;8.93;1.77;;;8.30;99.90;;;;;;5073064;28;20040;-72
2023/04/25 08:36:53;;;;;;;5.63;1.50;;;8.30;99.90;;;;;;5091588;28;20165;-72
2023/04/25 08:39:20;;;;;;;6.75;1.73;;;8.40;99.90;;;;;;5088381;28;20055;-72
2023/04/25 08:41:46;;;;;;;5.00;1.27;;;8.40;99.90;;;;;;5090225;28;20044;-71
2023/04/25 08:44:13;;;;;;;10.00;2.08;;;8.20;99.90;;;;;;5091116;28;20082;-72
2023/04/25 08:46:42;;;;;;;2.97;0.85;;;8.20;99.90;;;;;;5090453;28;20066;-79
2023/04/25 08:49:11;;;;;;;4.07;0.93;;;8.00;99.90;;;;;;5088943;28;20055;-73
2023/04/25 08:51:49;;;;;;;2.95;0.73;;;8.00;99.90;;;;;;5090439;28;20048;-73
2023/04/25 08:54:15;;;;;;;1.65;0.80;;;7.90;99.90;;;;;;5073145;28;20497;-72
2023/04/25 08:56:44;;;;;;;1.95;0.70;;;7.80;99.90;;;;;;5073141;28;20050;-75
2023/04/25 08:59:12;;;;;;;2.63;1.10;;;7.80;99.90;;;;;;5071542;28;20561;-73
2023/04/25 09:01:37;;;;;;;3.17;1.10;;;7.70;99.90;;;;;;5079400;28;20516;-72
2023/04/25 09:04:03;;;;;;;6.63;1.20;;;7.60;99.90;;;;;;5089914;28;20035;-72
2023/04/25 09:06:30;;;;;;;6.95;1.60;;;7.60;99.90;;;;;;5085483;28;20119;-74
2023/04/25 09:09:06;;;;;;;8.13;1.10;;;7.70;99.90;;;;;;5071199;28;20158;-78
2023/04/25 09:11:36;;;;;;;2.08;1.10;;;7.70;99.90;;;;;;5090123;28;20046;-72
2023/04/25 09:14:16;;;;;;;6.65;1.38;;;7.80;99.90;;;;;;5082106;28;20044;-72
2023/04/25 09:16:56;;;;;;;6.57;1.50;;;7.90;99.90;;;;;;5081858;28;20385;-72
2023/04/25 09:19:24;;;;;;;4.63;1.33;;;8.00;99.90;;;;;;5090313;28;20062;-71
2023/04/25 09:21:51;;;;;;;2.38;1.20;;;8.10;99.90;;;;;;5089322;28;20036;-71
2023/04/25 09:24:29;;;;;;;;;;;8.10;99.90;;;;;;5086049;28;20044;-73
2023/04/25 09:26:55;;;;;;;7.97;1.17;;;8.10;99.90;;;;;;5085665;28;19934;-73
2023/04/25 09:29:29;;;;;;;7.65;1.40;;;8.30;99.90;;;;;;5080314;28;20044;-70
2023/04/25 09:32:28;;;;;;;4.45;1.23;;;8.40;99.90;;;;;;5054144;28;20044;-73
2023/04/25 09:34:56;;;;;;;8.13;1.20;;;8.50;99.90;;;;;;5068413;28;20485;-73
2023/04/25 09:37:21;;;;;;;2.90;1.00;;;8.60;99.90;;;;;;5063233;28;20049;-79
2023/04/25 09:39:48;;;;;;;5.90;0.95;;;8.60;99.90;;;;;;5071469;28;20070;-82
2023/04/25 09:42:16;;;;;;;9.55;1.58;;;8.70;99.90;;;;;;5075298;28;20040;-76
2023/04/25 09:44:46;;;;;;;4.10;1.05;;;8.70;99.90;;;;;;5088987;28;20127;-75
2023/04/25 09:47:13;;;;;;;7.72;1.25;;;8.70;99.90;;;;;;5088378;28;20040;-75
2023/04/25 09:49:43;;;;;;;8.75;1.45;;;8.70;99.90;;;;;;5088425;28;20495;-75
2023/04/25 09:52:16;;;;;;;5.88;1.05;;;8.50;99.90;;;;;;5088787;28;20044;-76
2023/04/25 09:54:41;;;;;;;3.92;0.70;;;8.30;99.90;;;;;;5075836;28;20055;-75
2023/04/25 09:57:19;;;;;;;4.25;1.40;;;8.20;99.90;;;;;;5079137;28;20073;-75
2023/04/25 09:59:49;;;;;;;7.13;1.40;;;7.90;99.90;;;;;;5065271;28;20076;-75
2023/04/25 10:02:19;;;;;;;5.63;1.35;;;7.50;99.90;;;;;;5076208;28;20048;-76
2023/04/25 10:04:48;;;;;;;5.47;1.20;;;7.20;99.90;;;;;;5061696;28;20057;-75
2023/04/25 10:07:14;;;;;;;2.35;0.93;;;7.00;99.90;;;;;;5090194;28;20122;-76
2023/04/25 10:09:41;;;;;;;8.10;1.45;;;7.00;99.90;;;;;;5087960;28;20051;-71
2023/04/25 10:12:08;;;;;;;6.88;1.20;;;7.00;99.90;;;;;;5071309;28;20087;-76
2023/04/25 10:14:34;;;;;;;1.33;1.00;;;7.00;99.90;;;;;;5056051;28;20056;-72
2023/04/25 10:17:01;;;;;;;5.13;1.25;;;7.10;99.90;;;;;;5068271;28;20543;-76
2023/04/25 10:19:28;;;;;;;5.38;1.30;;;7.30;99.90;;;;;;5077057;28;20040;-76
2023/04/25 10:22:05;;;;;;;2.60;0.85;;;7.40;99.90;;;;;;5086969;28;20127;-74
2023/04/25 10:24:32;;;;;;;3.65;1.15;;;7.50;99.90;;;;;;5087565;28;20065;-76
2023/04/25 10:26:58;;;;;;;;;;;7.60;99.90;;;;;;5067725;28;20045;-76
2023/04/25 10:29:27;;;;;;;5.63;0.90;;;7.80;99.90;;;;;;5070992;28;19998;-77
2023/04/25 10:31:53;;;;;;;7.25;1.10;;;7.80;99.90;;;;;;5070069;28;20047;-78
2023/04/25 10:34:19;;;;;;;3.80;0.88;;;7.90;99.90;;;;;;5086962;28;20032;-76
2023/04/25 10:36:52;;;;;;;6.38;1.00;;;8.00;99.90;;;;;;5087464;28;20044;-77
2023/04/25 10:39:27;;;;;;;7.20;1.35;;;8.10;99.90;;;;;;5077664;28;20051;-76
2023/04/25 10:41:54;;;;;;;2.08;0.98;;;8.20;99.90;;;;;;5082837;28;20051;-78
2023/04/25 10:44:20;;;;;;;3.78;1.10;;;8.20;99.90;;;;;;5078488;28;20509;-77
2023/04/25 10:46:46;;;;;;;5.70;1.50;;;8.00;99.90;;;;;;5089384;28;20047;-77
2023/04/25 10:49:34;;;;;;;4.93;1.27;;;7.80;99.90;;;;;;5072981;28;20048;-76
2023/04/25 10:52:14;;;;;;;4.47;1.15;;;7.70;99.90;;;;;;5107126;28;20048;-78
2023/04/25 10:54:56;;;;;;;3.63;1.42;;;7.80;99.90;;;;;;5086048;28;20550;-78
2023/04/25 10:57:31;;;;;;;2.83;0.98;;;7.90;99.90;;;;;;5074742;28;20484;-77
2023/04/25 11:00:17;;;;;;;4.82;1.25;;;8.10;99.90;;;;;;5084776;28;20052;-79
2023/04/25 11:02:48;;;;;;;6.78;1.23;;;8.20;99.90;;;;;;5080309;28;20067;-78
2023/04/25 11:05:28;;;;;;;4.45;1.48;;;8.40;99.90;;;;;;5081236;28;20062;-78
2023/04/25 11:07:57;;;;;;;6.40;1.27;;;8.60;99.90;;;;;;5091549;28;20048;-77
2023/04/25 11:10:35;;;;;;;5.15;1.42;;;8.80;99.90;;;;;;5076680;28;20439;-77
2023/04/25 11:13:01;;;;;;;6.10;1.33;;;8.90;99.90;;;;;;5090999;28;20143;-77
2023/04/25 11:15:27;;;;;;;3.35;1.08;;;9.10;99.90;;;;;;5063803;28;20197;-76
2023/04/25 11:17:53;;;;;;;;;;;9.20;99.90;;;;;;5082198;28;20066;-74
2023/04/25 11:20:19;;;;;;;7.63;1.20;;;9.30;99.90;;;;;;5089035;28;20777;-75
2023/04/25 11:22:46;;;;;;;4.38;0.88;;;9.30;99.90;;;;;;5082408;28;20048;-74
2023/04/25 11:25:14;;;;;;;2.70;1.33;;;9.30;99.90;;;;;;5066701;28;20057;-77
2023/04/25 11:27:57;;;;;;;3.15;1.13;;;9.20;99.90;;;;;;5072223;28;20080;-77
2023/04/25 11:30:24;;;;;;;3.83;1.27;;;9.00;99.90;;;;;;5090978;28;20068;-77
2023/04/25 11:32:51;;;;;;;8.70;1.48;;;8.80;99.90;;;;;;5077632;28;20377;-77
2023/04/25 11:35:18;;;;;;;5.72;1.73;;;8.70;99.90;;;;;;5074076;28;20897;-77
2023/04/25 11:37:44;;;;;;;7.45;1.30;;;8.70;99.90;;;;;;5091336;28;20044;-76
2023/04/25 11:40:11;;;;;;;11.68;2.10;;;8.90;99.90;;;;;;5090150;28;20113;-76
2023/04/25 11:42:38;;;;;;;4.75;1.27;;;9.40;99.90;;;;;;5092760;28;20531;-77
2023/04/25 11:45:05;;;;;;;4.72;1.20;;;9.90;99.90;;;;;;5073635;28;20059;-77
2023/04/25 11:47:32;;;;;;;6.10;1.10;;;10.30;99.90;;;;;;5060188;28;20116;-77
2023/04/25 11:50:05;;;;;;;5.60;1.02;;;10.20;99.90;;;;;;5087359;28;20053;-76
2023/04/25 11:52:45;;;;;;;2.45;0.80;;;9.90;99.90;;;;;;5089355;28;20059;-74
2023/04/25 11:55:19;;;;;;;6.18;1.40;;;9.60;99.90;;;;;;5090020;28;20489;-77
2023/04/25 11:57:48;;;;;;;6.45;1.52;;;9.60;99.90;;;;;;5074001;28;20056;-78
2023/04/25 12:00:18;;;;;;;7.60;1.70;;;9.80;99.90;;;;;;5090293;28;20480;-78
2023/04/25 12:02:45;;;;;;;3.40;1.00;;;10.20;99.90;;;;;;5090588;28;20062;-78
2023/04/25 12:05:13;;;;;;;3.35;1.27;;;10.70;99.90;;;;;;5090231;28;20054;-78
2023/04/25 12:07:40;;;;;;;4.22;1.33;;;11.30;99.90;;;;;;5084858;28;20072;-78
2023/04/25 12:10:10;;;;;;;4.55;1.23;;;11.70;99.90;;;;;;5086138;28;20396;-78
2023/04/25 12:12:36;;;;;;;4.05;0.95;;;12.00;99.90;;;;;;5090924;28;20079;-78
2023/04/25 12:15:10;;;;;;;3.90;1.00;;;12.20;99.90;;;;;;5078524;28;20056;-79
2023/04/25 12:17:38;;;;;;;3.72;1.00;;;12.30;99.90;;;;;;5063390;28;20185;-78
2023/04/25 12:20:29;;;;;;;2.55;0.90;;;12.60;99.90;;;;;;5059698;28;20053;-79
2023/04/25 12:22:56;;;;;;;4.68;1.10;;;12.80;94.50;;;;;;5090402;28;20093;-78
2023/04/25 12:25:35;;;;;;;5.57;1.15;;;12.80;88.10;;;;;;5089309;28;20051;-78
2023/04/25 12:28:15;;;;;;;4.43;1.20;;;12.70;83.10;;;;;;5090695;28;20796;-78
2023/04/25 12:31:01;;;;;;;5.28;1.30;;;12.70;92.20;;;;;;5076431;28;20130;-78
2023/04/25 12:33:30;;;;;;;3.28;1.20;;;12.90;97.10;;;;;;5080493;28;20075;-78
2023/04/25 12:35:57;;;;;;;10.10;1.63;;;13.20;99.80;;;;;;5091105;28;20048;-78
2023/04/25 12:38:31;;;;;;;5.60;0.88;;;13.30;95.50;;;;;;5072659;28;20040;-78
2023/04/25 12:41:00;;;;;;;6.20;1.48;;;13.50;90.10;;;;;;5069437;28;20060;-77
2023/04/25 12:43:26;;;;;;;2.40;0.80;;;13.60;94.20;;;;;;5068435;28;20140;-76
2023/04/25 12:45:55;;;;;;;5.18;1.15;;;13.70;91.90;;;;;;5071376;28;20139;-76
2023/04/25 12:48:22;;;;;;;5.43;1.30;;;13.70;77.30;;;;;;5062927;28;20109;-76
2023/04/25 12:50:49;;;;;;;15.07;2.65;;;13.40;74.70;;;;;;5049303;28;20053;-75
2023/04/25 12:53:20;;;;;;;7.60;1.85;;;13.00;86.40;;;;;;5067645;28;20074;-74
2023/04/25 12:55:46;;;;;;;4.45;1.50;;;12.90;91.20;;;;;;5070173;28;20131;-78
2023/04/25 12:58:17;;;;;;;3.30;0.93;;;13.10;96.10;;;;;;5060430;28;20048;-75